Time;durP1;ratioP1;P1;durP2;ratioP2;P2;SDS_P1;SDS_P2;PMS_P1;PMS_P2;Temp;Humidity;BMP_temperature;BMP_pressure;BME280_temperature;BME280_humidity;BME280_pressure;Samples;Min_cycle;Max_cycle;Signal;HPM_P1;HPM_P2
2024/04/13 00:01:13;;;;;;;7.95;4.10;;;16.40;99.90;;;;;;5430619;26;20072;-80
2024/04/13 00:03:41;;;;;;;7.70;3.53;;;16.40;99.90;;;;;;5418999;26;19999;-79
2024/04/13 00:06:07;;;;;;;7.15;3.67;;;16.40;99.90;;;;;;5397875;26;20009;-80
2024/04/13 00:08:33;;;;;;;4.20;3.75;;;16.30;99.90;;;;;;5389877;26;20026;-80
2024/04/13 00:10:58;;;;;;;8.35;3.60;;;16.30;99.90;;;;;;5377644;26;20449;-79
2024/04/13 00:13:24;;;;;;;7.05;3.53;;;16.30;99.90;;;;;;5396456;26;20017;-79
2024/04/13 00:15:56;;;;;;;8.77;4.10;;;16.30;99.90;;;;;;5418192;26;19999;-80
2024/04/13 00:18:22;;;;;;;7.15;3.78;;;16.20;99.90;;;;;;5400625;26;20443;-79
2024/04/13 00:20:47;;;;;;;6.72;4.47;;;16.20;99.90;;;;;;5392667;26;20011;-80
2024/04/13 00:23:13;;;;;;;5.30;3.85;;;16.20;99.90;;;;;;5407355;26;20621;-79
2024/04/13 00:25:38;;;;;;;8.50;3.97;;;16.20;99.90;;;;;;5433802;26;20721;-80
2024/04/13 00:28:05;;;;;;;8.60;4.50;;;16.20;99.90;;;;;;5396958;26;20011;-80
2024/04/13 00:30:31;;;;;;;6.75;3.97;;;16.10;99.90;;;;;;5417264;26;20002;-80
2024/04/13 00:32:56;;;;;;;10.68;4.40;;;16.10;99.90;;;;;;5430311;26;20663;-79
2024/04/13 00:35:23;;;;;;;9.30;3.92;;;16.10;99.90;;;;;;5402102;26;20004;-79
2024/04/13 00:37:48;;;;;;;6.22;3.85;;;16.10;99.90;;;;;;5395732;26;20093;-79
2024/04/13 00:40:14;;;;;;;8.40;4.25;;;16.10;99.90;;;;;;5409064;26;20031;-79
2024/04/13 00:42:39;;;;;;;11.38;4.43;;;16.00;99.90;;;;;;5432180;26;20073;-80
2024/04/13 00:45:05;;;;;;;9.48;4.20;;;16.00;99.90;;;;;;5432105;26;20000;-80
2024/04/13 00:47:40;;;;;;;10.38;4.55;;;16.00;99.90;;;;;;5438590;26;20002;-80
2024/04/13 00:50:11;;;;;;;5.17;3.50;;;16.00;99.90;;;;;;5381785;26;20467;-79
2024/04/13 00:52:41;;;;;;;6.40;4.50;;;16.00;99.90;;;;;;5408910;26;20124;-79
2024/04/13 00:55:06;;;;;;;7.78;4.25;;;16.00;99.90;;;;;;5395385;26;20017;-79
2024/04/13 00:57:32;;;;;;;9.43;3.80;;;15.90;99.90;;;;;;5436851;26;20000;-79
2024/04/13 00:59:58;;;;;;;7.65;3.85;;;16.00;99.90;;;;;;5432875;26;20036;-79
2024/04/13 01:02:23;;;;;;;6.93;4.32;;;15.90;99.90;;;;;;5413532;26;19999;-79
2024/04/13 01:04:49;;;;;;;7.50;4.20;;;16.00;99.90;;;;;;5428662;26;20014;-80
2024/04/13 01:07:18;;;;;;;6.47;3.65;;;15.90;99.90;;;;;;5371682;26;20323;-79
2024/04/13 01:09:45;;;;;;;5.60;3.40;;;15.80;99.90;;;;;;5434614;26;20079;-79
2024/04/13 01:12:13;;;;;;;6.85;3.83;;;15.80;99.90;;;;;;5412033;26;19999;-80
2024/04/13 01:14:39;;;;;;;8.27;4.53;;;15.90;99.90;;;;;;5407820;26;20010;-79
2024/04/13 01:17:05;;;;;;;7.65;4.13;;;15.90;99.90;;;;;;5411571;26;20062;-79
2024/04/13 01:19:31;;;;;;;8.75;4.28;;;15.90;99.90;;;;;;5432118;26;20364;-79
2024/04/13 01:21:57;;;;;;;10.88;3.72;;;15.80;99.90;;;;;;5428150;26;20118;-79
2024/04/13 01:24:23;;;;;;;13.43;4.20;;;15.80;99.90;;;;;;5397762;26;20014;-79
2024/04/13 01:26:49;;;;;;;9.07;3.90;;;15.80;99.90;;;;;;5427483;26;20010;-79
2024/04/13 01:29:14;;;;;;;5.75;4.00;;;15.80;99.90;;;;;;5412507;26;20007;-79
2024/04/13 01:31:40;;;;;;;9.13;3.40;;;15.70;99.90;;;;;;5430517;26;19999;-79
2024/04/13 01:34:06;;;;;;;6.60;3.25;;;15.80;99.90;;;;;;5410656;26;19998;-79
2024/04/13 01:36:38;;;;;;;10.30;4.22;;;15.70;99.90;;;;;;5429248;26;20021;-79
2024/04/13 01:39:12;;;;;;;5.88;3.58;;;15.90;99.90;;;;;;5435292;26;20006;-79
2024/04/13 01:41:51;;;;;;;5.47;2.75;;;15.70;99.90;;;;;;5367767;26;20027;-80
2024/04/13 01:44:17;;;;;;;8.00;4.22;;;15.70;99.90;;;;;;5370856;26;20011;-80
2024/04/13 01:46:43;;;;;;;10.70;4.50;;;15.60;99.90;;;;;;5407630;26;20006;-80
2024/04/13 01:49:08;;;;;;;7.65;4.47;;;15.60;99.90;;;;;;5432642;26;20004;-80
2024/04/13 01:51:34;;;;;;;8.75;3.72;;;15.70;99.90;;;;;;5435121;26;20075;-80
2024/04/13 01:54:00;;;;;;;9.10;3.13;;;15.70;99.90;;;;;;5393721;26;20006;-80
2024/04/13 01:56:25;;;;;;;8.93;4.45;;;15.70;99.90;;;;;;5393540;26;20018;-81
2024/04/13 01:58:51;;;;;;;5.60;3.53;;;15.70;99.90;;;;;;5398172;26;20079;-79
2024/04/13 02:01:16;;;;;;;6.13;2.35;;;15.70;99.90;;;;;;5370566;26;20011;-79
2024/04/13 02:03:42;;;;;;;8.57;4.07;;;15.60;99.90;;;;;;5432693;26;20007;-80
2024/04/13 02:06:09;;;;;;;7.78;4.18;;;15.60;99.90;;;;;;5406170;26;20019;-80
2024/04/13 02:08:34;;;;;;;13.57;3.83;;;15.60;99.90;;;;;;5432987;26;20021;-80
2024/04/13 02:11:00;;;;;;;8.52;3.80;;;15.60;99.90;;;;;;5434784;26;19998;-80
2024/04/13 02:13:27;;;;;;;11.68;4.72;;;15.60;99.90;;;;;;5403459;26;20496;-80
2024/04/13 02:15:54;;;;;;;10.95;5.10;;;15.60;99.90;;;;;;5406853;26;19999;-80
2024/04/13 02:18:20;;;;;;;7.13;3.60;;;15.70;99.90;;;;;;5423187;26;20077;-80
2024/04/13 02:20:45;;;;;;;7.45;4.18;;;15.60;99.90;;;;;;5427019;26;20011;-80
2024/04/13 02:23:11;;;;;;;6.47;3.42;;;15.60;99.90;;;;;;5433532;26;20022;-80
2024/04/13 02:25:36;;;;;;;9.10;3.63;;;15.60;99.90;;;;;;5428623;26;20077;-80
2024/04/13 02:28:04;;;;;;;7.97;3.33;;;15.60;99.90;;;;;;5401151;26;20062;-80
2024/04/13 02:30:30;;;;;;;7.35;2.75;;;15.60;99.90;;;;;;5436936;26;20332;-80
2024/04/13 02:32:57;;;;;;;5.70;3.80;;;15.50;99.90;;;;;;5397766;26;19999;-79
2024/04/13 02:35:23;;;;;;;7.30;4.13;;;15.60;99.90;;;;;;5427917;26;20011;-80
2024/04/13 02:37:49;;;;;;;7.95;3.78;;;15.60;99.90;;;;;;5379287;26;20002;-79
2024/04/13 02:40:16;;;;;;;6.50;3.58;;;15.60;99.90;;;;;;5431193;26;20003;-80
2024/04/13 02:42:43;;;;;;;6.15;4.50;;;15.50;99.90;;;;;;5402923;26;21251;-79
2024/04/13 02:45:10;;;;;;;7.60;3.75;;;15.60;99.90;;;;;;5398016;26;20022;-80
2024/04/13 02:47:35;;;;;;;3.85;2.50;;;15.50;99.90;;;;;;5397260;26;20358;-79
2024/04/13 02:50:04;;;;;;;5.07;3.72;;;15.50;99.90;;;;;;5419847;26;20000;-80
2024/04/13 02:52:30;;;;;;;7.05;3.58;;;15.40;99.90;;;;;;5404558;26;20144;-79
2024/04/13 02:54:56;;;;;;;5.95;3.63;;;15.50;99.90;;;;;;5371399;26;20042;-80
2024/04/13 02:57:22;;;;;;;8.85;3.90;;;15.50;99.90;;;;;;5428938;26;20000;-79
2024/04/13 02:59:48;;;;;;;11.35;5.05;;;15.40;99.90;;;;;;5426141;26;20076;-79
2024/04/13 03:02:13;;;;;;;11.70;4.43;;;15.50;99.90;;;;;;5428994;26;20018;-80
2024/04/13 03:04:39;;;;;;;7.65;4.47;;;15.60;99.90;;;;;;5428661;26;20382;-80
2024/04/13 03:07:05;;;;;;;8.55;4.38;;;15.50;99.90;;;;;;5393660;26;20003;-79
2024/04/13 03:09:30;;;;;;;5.35;3.10;;;15.40;99.90;;;;;;5432610;26;20401;-80
2024/04/13 03:11:56;;;;;;;7.55;3.90;;;15.40;99.90;;;;;;5408509;26;20011;-79
2024/04/13 03:14:22;;;;;;;6.30;3.80;;;15.40;99.90;;;;;;5408895;26;19999;-79
2024/04/13 03:16:47;;;;;;;7.63;4.30;;;15.40;99.90;;;;;;5391874;26;20008;-80
2024/04/13 03:19:15;;;;;;;11.20;3.85;;;15.30;99.90;;;;;;5395295;26;20002;-79
2024/04/13 03:21:41;;;;;;;7.97;4.25;;;15.30;99.90;;;;;;5394272;26;20014;-80
2024/04/13 03:24:10;;;;;;;8.88;4.00;;;15.30;99.90;;;;;;5392500;26;20031;-80
2024/04/13 03:26:35;;;;;;;6.25;4.38;;;15.20;99.90;;;;;;5387245;26;20439;-80
2024/04/13 03:29:01;;;;;;;6.85;4.35;;;15.20;99.90;;;;;;5424731;26;20014;-80
2024/04/13 03:31:26;;;;;;;7.55;3.85;;;15.20;99.90;;;;;;5376567;26;20406;-80
2024/04/13 03:33:52;;;;;;;10.75;4.45;;;15.20;99.90;;;;;;5364968;26;20428;-79
2024/04/13 03:36:17;;;;;;;8.45;4.15;;;15.10;99.90;;;;;;5419992;26;20030;-80
2024/04/13 03:38:44;;;;;;;6.65;3.80;;;15.10;99.90;;;;;;5370842;26;20335;-80
2024/04/13 03:41:10;;;;;;;8.18;4.20;;;15.20;99.90;;;;;;5390400;26;20007;-80
2024/04/13 03:43:36;;;;;;;8.02;3.58;;;15.10;99.90;;;;;;5403379;26;20017;-80
2024/04/13 03:46:03;;;;;;;6.22;3.92;;;15.10;99.90;;;;;;5403042;26;19999;-80
2024/04/13 03:48:29;;;;;;;8.18;4.28;;;15.10;99.90;;;;;;5404398;26;20007;-80
2024/04/13 03:50:54;;;;;;;9.23;4.60;;;15.10;99.90;;;;;;5369691;26;20014;-80
2024/04/13 03:53:20;;;;;;;7.03;3.63;;;15.10;99.90;;;;;;5402842;26;20035;-79
2024/04/13 03:55:45;;;;;;;6.88;2.97;;;15.00;99.90;;;;;;5373690;26;20010;-80
2024/04/13 03:58:11;;;;;;;9.70;4.05;;;15.00;99.90;;;;;;5400135;26;20391;-80
2024/04/13 04:00:36;;;;;;;6.90;3.83;;;14.90;99.90;;;;;;5388457;26;20017;-79
2024/04/13 04:03:02;;;;;;;7.93;4.93;;;14.80;99.90;;;;;;5365277;26;19999;-80
2024/04/13 04:05:27;;;;;;;5.15;3.80;;;14.80;99.90;;;;;;5407356;26;20014;-79
2024/04/13 04:07:53;;;;;;;10.65;5.78;;;14.80;99.90;;;;;;5429423;26;20046;-80
2024/04/13 04:10:21;;;;;;;5.55;3.22;;;14.80;99.90;;;;;;5401890;26;19998;-79
2024/04/13 04:12:46;;;;;;;4.30;2.42;;;14.80;99.90;;;;;;5427163;26;20049;-80
2024/04/13 04:15:12;;;;;;;7.03;4.63;;;14.80;99.90;;;;;;5427750;26;20495;-80
2024/04/13 04:17:38;;;;;;;11.63;6.00;;;14.80;99.90;;;;;;5402924;26;20081;-79
2024/04/13 04:20:04;;;;;;;10.90;5.88;;;14.80;99.90;;;;;;5420185;26;20482;-79
2024/04/13 04:22:32;;;;;;;13.88;4.95;;;14.80;99.90;;;;;;5419519;26;20015;-79
2024/04/13 04:24:57;;;;;;;8.10;3.92;;;14.60;99.90;;;;;;5419865;26;20014;-79
2024/04/13 04:27:23;;;;;;;6.43;4.55;;;14.70;99.90;;;;;;5397603;26;19996;-79
2024/04/13 04:29:48;;;;;;;7.68;3.80;;;14.80;99.90;;;;;;5428323;26;20408;-79
2024/04/13 04:32:14;;;;;;;10.15;4.80;;;14.80;99.90;;;;;;5421936;26;20593;-83
2024/04/13 04:34:40;;;;;;;6.80;4.70;;;14.70;99.90;;;;;;5425213;26;20370;-82
2024/04/13 04:37:05;;;;;;;9.95;4.90;;;14.70;99.90;;;;;;5395462;26;19995;-83
2024/04/13 04:39:31;;;;;;;9.25;5.32;;;14.60;99.90;;;;;;5368038;26;20367;-82
2024/04/13 04:41:56;;;;;;;6.63;4.63;;;14.60;99.90;;;;;;5397794;26;20470;-83
2024/04/13 04:44:22;;;;;;;9.38;4.32;;;14.70;99.90;;;;;;5406515;26;20453;-84
2024/04/13 04:46:47;;;;;;;8.10;4.95;;;14.70;99.90;;;;;;5394974;26;20394;-83
2024/04/13 04:49:13;;;;;;;7.75;4.15;;;14.60;99.90;;;;;;5401156;26;20450;-80
2024/04/13 04:51:40;;;;;;;10.00;4.47;;;14.60;99.90;;;;;;5393555;26;19999;-80
2024/04/13 04:54:08;;;;;;;11.00;5.15;;;14.70;99.90;;;;;;5420130;26;20000;-80
2024/04/13 04:56:34;;;;;;;6.43;3.65;;;14.60;99.90;;;;;;5430465;26;20303;-80
2024/04/13 04:58:59;;;;;;;7.03;4.25;;;14.60;99.90;;;;;;5423408;26;20026;-80
2024/04/13 05:01:27;;;;;;;8.93;4.78;;;14.60;99.90;;;;;;5421469;26;20014;-80
2024/04/13 05:03:52;;;;;;;15.05;4.93;;;14.60;99.90;;;;;;5399065;26;20075;-80
2024/04/13 05:06:18;;;;;;;12.70;4.93;;;14.60;99.90;;;;;;5430856;26;20496;-80
2024/04/13 05:08:45;;;;;;;12.60;5.57;;;14.60;99.90;;;;;;5394705;26;20014;-79
2024/04/13 05:11:11;;;;;;;6.72;4.50;;;14.60;99.90;;;;;;5426266;26;20014;-80
2024/04/13 05:13:37;;;;;;;5.95;4.07;;;14.60;99.90;;;;;;5429953;26;20488;-80
2024/04/13 05:16:05;;;;;;;10.25;4.60;;;14.60;99.90;;;;;;5426300;26;20614;-80
2024/04/13 05:18:30;;;;;;;7.63;4.75;;;14.60;99.90;;;;;;5396665;26;19998;-80
2024/04/13 05:20:56;;;;;;;8.50;5.07;;;14.60;99.90;;;;;;5435239;26;20014;-79
2024/04/13 05:23:21;;;;;;;6.30;4.10;;;14.70;99.90;;;;;;5427676;26;20003;-80
2024/04/13 05:25:49;;;;;;;7.78;4.72;;;14.70;99.90;;;;;;5427743;26;20524;-79
2024/04/13 05:28:14;;;;;;;10.52;5.03;;;14.70;99.90;;;;;;5408229;26;20003;-80
2024/04/13 05:30:45;;;;;;;6.25;4.30;;;14.70;99.90;;;;;;5406957;26;20018;-80
2024/04/13 05:33:12;;;;;;;8.40;5.53;;;14.70;99.90;;;;;;5410121;26;20006;-81
2024/04/13 05:35:37;;;;;;;6.97;5.35;;;14.70;99.90;;;;;;5434057;26;20358;-80
2024/04/13 05:38:03;;;;;;;12.98;5.47;;;14.70;99.90;;;;;;5403613;26;19999;-81
2024/04/13 05:40:29;;;;;;;11.30;5.03;;;14.70;99.90;;;;;;5399411;26;20003;-80
2024/04/13 05:42:54;;;;;;;9.15;4.90;;;14.80;99.90;;;;;;5396532;26;19999;-80
2024/04/13 05:45:22;;;;;;;5.53;4.07;;;14.80;99.90;;;;;;5427631;26;20011;-80
2024/04/13 05:47:49;;;;;;;7.60;4.95;;;14.80;99.90;;;;;;5406276;26;20043;-80
2024/04/13 05:50:14;;;;;;;8.95;4.97;;;14.90;99.90;;;;;;5427063;26;20084;-80
2024/04/13 05:52:40;;;;;;;6.57;4.05;;;14.90;99.90;;;;;;5432599;26;19999;-80
2024/04/13 05:55:06;;;;;;;9.35;5.18;;;14.90;99.90;;;;;;5420507;26;19999;-80
2024/04/13 05:57:32;;;;;;;12.35;4.68;;;14.90;99.90;;;;;;5433540;26;20403;-80
2024/04/13 05:59:58;;;;;;;9.43;4.82;;;14.90;99.90;;;;;;5432975;26;20011;-80
2024/04/13 06:02:26;;;;;;;10.10;4.85;;;15.00;99.90;;;;;;5406545;26;20086;-80
2024/04/13 06:04:53;;;;;;;8.77;4.60;;;15.00;99.90;;;;;;5427564;26;20000;-80
2024/04/13 06:07:19;;;;;;;12.35;4.82;;;15.10;99.90;;;;;;5430864;26;20030;-80
2024/04/13 06:09:45;;;;;;;8.00;4.50;;;15.10;99.90;;;;;;5429560;26;20022;-79
2024/04/13 06:12:10;;;;;;;7.82;4.57;;;15.10;99.90;;;;;;5434475;26;20082;-80
2024/04/13 06:14:39;;;;;;;7.80;4.43;;;15.20;99.90;;;;;;5430457;26;20049;-80
2024/04/13 06:17:05;;;;;;;10.15;4.97;;;15.20;99.90;;;;;;5405601;26;20007;-80
2024/04/13 06:19:31;;;;;;;9.20;4.95;;;15.30;99.90;;;;;;5410585;26;20367;-79
2024/04/13 06:21:56;;;;;;;8.43;5.28;;;15.30;99.90;;;;;;5435332;26;20014;-81
2024/04/13 06:24:22;;;;;;;5.70;3.60;;;15.40;99.90;;;;;;5427416;26;20010;-80
2024/04/13 06:26:47;;;;;;;6.00;4.57;;;15.50;99.90;;;;;;5403271;26;20003;-80
2024/04/13 06:29:13;;;;;;;7.05;4.47;;;15.50;99.90;;;;;;5431991;26;20000;-80
2024/04/13 06:31:38;;;;;;;8.35;5.10;;;15.60;99.90;;;;;;5430943;26;20367;-81
2024/04/13 06:34:04;;;;;;;8.05;4.22;;;15.60;99.90;;;;;;5431018;26;20669;-79
2024/04/13 06:36:30;;;;;;;7.40;4.28;;;15.70;99.90;;;;;;5434130;26;20093;-80
2024/04/13 06:38:55;;;;;;;7.50;4.47;;;15.80;99.90;;;;;;5434492;26;19999;-80
2024/04/13 06:41:21;;;;;;;8.35;4.13;;;15.90;99.90;;;;;;5430927;26;20462;-80
2024/04/13 06:43:47;;;;;;;6.43;4.03;;;16.00;99.90;;;;;;5434381;26;20035;-80
2024/04/13 06:46:12;;;;;;;8.05;4.35;;;16.10;99.90;;;;;;5428436;26;20017;-80
2024/04/13 06:48:38;;;;;;;7.00;4.60;;;16.20;99.90;;;;;;5397976;26;20011;-80
2024/04/13 06:51:03;;;;;;;8.02;3.95;;;16.40;99.90;;;;;;5432193;26;20374;-80
2024/04/13 06:53:29;;;;;;;6.70;3.75;;;16.50;99.90;;;;;;5409792;26;20022;-80
2024/04/13 06:55:54;;;;;;;6.88;3.60;;;16.50;99.90;;;;;;5402918;26;19996;-80
2024/04/13 06:58:23;;;;;;;6.72;4.35;;;16.70;99.90;;;;;;5392686;26;20458;-80
2024/04/13 07:00:55;;;;;;;11.00;4.55;;;16.80;99.90;;;;;;5424114;26;20018;-80
2024/04/13 07:03:21;;;;;;;8.98;4.75;;;16.90;99.90;;;;;;5405942;26;20018;-80
2024/04/13 07:05:53;;;;;;;14.70;4.95;;;16.90;99.90;;;;;;5410376;26;19998;-80
2024/04/13 07:08:19;;;;;;;10.07;4.55;;;17.00;99.90;;;;;;5431296;26;20468;-81
2024/04/13 07:10:45;;;;;;;7.35;4.32;;;17.10;99.90;;;;;;5401562;26;20033;-80
2024/04/13 07:13:11;;;;;;;4.80;3.42;;;17.10;99.90;;;;;;5426768;26;20006;-80
2024/04/13 07:15:36;;;;;;;9.75;3.85;;;17.20;99.90;;;;;;5423996;26;20343;-80
2024/04/13 07:18:02;;;;;;;10.55;3.78;;;17.40;99.90;;;;;;5430739;26;20010;-80
2024/04/13 07:20:28;;;;;;;5.65;2.25;;;17.40;99.90;;;;;;5423051;26;19998;-79
2024/04/13 07:22:53;;;;;;;4.78;3.58;;;17.50;99.90;;;;;;5425455;26;19995;-79
2024/04/13 07:25:19;;;;;;;9.95;4.03;;;17.50;99.90;;;;;;5374063;26;20003;-80
2024/04/13 07:27:44;;;;;;;7.90;3.75;;;17.60;99.90;;;;;;5395701;26;20007;-80
2024/04/13 07:30:10;;;;;;;6.10;4.25;;;17.70;99.90;;;;;;5429997;26;20014;-79
2024/04/13 07:32:36;;;;;;;5.90;4.10;;;17.70;99.90;;;;;;5424533;26;20239;-80
2024/04/13 07:35:01;;;;;;;7.97;3.92;;;17.90;99.90;;;;;;5429628;26;20043;-80
2024/04/13 07:37:27;;;;;;;8.05;3.60;;;17.90;99.90;;;;;;5420981;26;20397;-80
2024/04/13 07:39:52;;;;;;;7.32;4.20;;;18.00;99.90;;;;;;5406775;26;20009;-81
2024/04/13 07:42:18;;;;;;;6.03;3.05;;;18.20;99.90;;;;;;5422583;26;20022;-80
2024/04/13 07:44:44;;;;;;;7.55;3.80;;;18.20;99.90;;;;;;5400184;26;19999;-80
2024/04/13 07:47:10;;;;;;;7.55;3.90;;;18.40;99.90;;;;;;5380883;26;20014;-80
2024/04/13 07:49:36;;;;;;;7.72;3.67;;;18.50;99.90;;;;;;5402280;26;20019;-80
2024/04/13 07:52:02;;;;;;;9.05;4.55;;;18.40;99.90;;;;;;5436279;26;20013;-80
2024/04/13 07:54:27;;;;;;;7.93;3.63;;;18.60;99.90;;;;;;5376649;26;20442;-80
2024/04/13 07:56:53;;;;;;;9.35;4.65;;;18.50;99.90;;;;;;5427415;26;19999;-80
2024/04/13 07:59:18;;;;;;;6.68;3.70;;;18.70;99.90;;;;;;5434383;26;20007;-80
2024/04/13 08:01:44;;;;;;;8.98;2.92;;;18.90;99.90;;;;;;5403530;26;20442;-80
2024/04/13 08:04:10;;;;;;;5.30;3.75;;;19.00;99.90;;;;;;5437029;26;20076;-80
2024/04/13 08:06:36;;;;;;;6.97;4.05;;;19.10;99.90;;;;;;5436047;26;20002;-79
2024/04/13 08:09:02;;;;;;;5.85;2.83;;;19.00;99.90;;;;;;5429650;26;20010;-79
2024/04/13 08:11:28;;;;;;;13.93;5.00;;;19.10;99.90;;;;;;5425770;26;19999;-80
2024/04/13 08:13:54;;;;;;;8.45;4.35;;;19.30;99.90;;;;;;5434883;26;20000;-80
2024/04/13 08:16:19;;;;;;;7.88;4.05;;;19.20;99.90;;;;;;5434268;26;20021;-80
2024/04/13 08:18:45;;;;;;;9.30;5.10;;;19.30;99.90;;;;;;5433973;26;20336;-80
2024/04/13 08:21:10;;;;;;;6.45;3.20;;;19.40;99.90;;;;;;5401774;26;20363;-80
2024/04/13 08:23:36;;;;;;;7.00;4.13;;;19.70;99.90;;;;;;5395290;26;20522;-79
2024/04/13 08:26:03;;;;;;;7.45;3.58;;;19.90;99.90;;;;;;5405954;26;20042;-79
2024/04/13 08:28:28;;;;;;;7.45;4.32;;;19.90;99.90;;;;;;5401884;26;20000;-80
2024/04/13 08:30:55;;;;;;;5.28;3.45;;;20.00;99.90;;;;;;5430817;26;21375;-79
2024/04/13 08:33:21;;;;;;;7.65;4.20;;;20.00;99.90;;;;;;5427103;26;20447;-79
2024/04/13 08:35:46;;;;;;;5.53;3.38;;;20.10;99.90;;;;;;5406779;26;20133;-79
2024/04/13 08:38:12;;;;;;;7.50;2.60;;;20.10;99.90;;;;;;5431626;26;20030;-80
2024/04/13 08:40:39;;;;;;;11.80;4.10;;;20.30;99.90;;;;;;5428748;26;19999;-79
2024/04/13 08:43:04;;;;;;;6.10;3.00;;;20.70;99.90;;;;;;5420597;26;20011;-80
2024/04/13 08:45:30;;;;;;;9.05;4.43;;;20.80;99.90;;;;;;5407873;26;20003;-79
2024/04/13 08:47:55;;;;;;;9.95;3.75;;;20.90;99.90;;;;;;5430052;26;20010;-79
2024/04/13 08:50:21;;;;;;;8.50;3.75;;;21.00;99.90;;;;;;5403675;26;20044;-80
2024/04/13 08:52:47;;;;;;;6.40;3.47;;;21.00;99.90;;;;;;5429731;26;20457;-79
2024/04/13 08:55:12;;;;;;;6.78;3.78;;;21.00;99.90;;;;;;5394877;26;20000;-79
2024/04/13 08:57:38;;;;;;;4.88;3.40;;;21.00;99.90;;;;;;5397472;26;19999;-79
2024/04/13 09:00:08;;;;;;;4.97;3.83;;;21.20;99.90;;;;;;5370340;26;20013;-79
2024/04/13 09:02:33;;;;;;;8.05;3.50;;;21.20;99.90;;;;;;5402744;26;20015;-79
2024/04/13 09:05:02;;;;;;;8.50;3.88;;;21.40;99.90;;;;;;5409102;26;19995;-79
2024/04/13 09:07:28;;;;;;;8.13;3.38;;;21.60;99.90;;;;;;5420348;26;20003;-79
2024/04/13 09:09:53;;;;;;;5.15;3.17;;;21.60;99.90;;;;;;5397971;26;20030;-79
2024/04/13 09:12:19;;;;;;;6.88;3.38;;;21.50;99.90;;;;;;5401854;26;20019;-78
2024/04/13 09:14:46;;;;;;;6.20;2.80;;;21.40;99.90;;;;;;5439992;26;20368;-78
2024/04/13 09:17:11;;;;;;;7.05;3.30;;;21.70;99.90;;;;;;5399203;26;20015;-78
2024/04/13 09:19:37;;;;;;;14.77;4.43;;;21.90;99.90;;;;;;5420782;26;20458;-79
2024/04/13 09:22:03;;;;;;;5.45;3.15;;;22.10;99.90;;;;;;5428955;26;20362;-79
2024/04/13 09:24:41;;;;;;;6.28;2.75;;;22.00;99.90;;;;;;5431874;26;20580;-78
2024/04/13 09:27:20;;;;;;;6.72;2.83;;;22.20;99.90;;;;;;5399190;26;20455;-78
2024/04/13 09:29:46;;;;;;;7.43;3.08;;;22.20;99.90;;;;;;5410162;26;20360;-79
2024/04/13 09:32:25;;;;;;;8.05;3.00;;;22.40;99.90;;;;;;5430539;26;20040;-78
2024/04/13 09:34:51;;;;;;;5.25;3.05;;;22.60;99.90;;;;;;5395774;26;20000;-78
2024/04/13 09:37:16;;;;;;;6.20;3.08;;;22.90;99.90;;;;;;5403976;26;20450;-79
2024/04/13 09:39:44;;;;;;;9.02;4.07;;;23.10;99.90;;;;;;5398012;26;20060;-79
2024/04/13 09:42:10;;;;;;;5.82;3.30;;;23.10;99.90;;;;;;5410052;26;20002;-79
2024/04/13 09:44:35;;;;;;;6.82;3.30;;;23.10;99.90;;;;;;5426890;26;20066;-79
2024/04/13 09:47:01;;;;;;;7.28;3.10;;;23.40;99.90;;;;;;5429126;26;20316;-79
2024/04/13 09:49:26;;;;;;;9.80;3.45;;;23.40;99.90;;;;;;5438007;26;20049;-79
2024/04/13 09:51:52;;;;;;;5.10;3.17;;;23.70;99.90;;;;;;5403324;26;20140;-79
2024/04/13 09:54:18;;;;;;;5.97;3.35;;;23.60;99.90;;;;;;5427122;26;20079;-79
2024/04/13 09:56:46;;;;;;;4.38;2.85;;;23.90;99.90;;;;;;5378536;26;19999;-79
2024/04/13 09:59:12;;;;;;;6.25;3.40;;;24.00;99.90;;;;;;5426821;26;20031;-79
2024/04/13 10:01:38;;;;;;;8.63;4.00;;;24.20;99.90;;;;;;5434912;26;20000;-79
2024/04/13 10:04:04;;;;;;;4.03;2.58;;;24.20;99.90;;;;;;5435216;26;20022;-80
2024/04/13 10:06:29;;;;;;;6.35;3.42;;;24.20;99.90;;;;;;5427510;26;20003;-80
2024/04/13 10:08:55;;;;;;;6.50;3.28;;;24.30;99.80;;;;;;5412552;26;20021;-80
2024/04/13 10:11:20;;;;;;;6.63;4.88;;;24.30;99.90;;;;;;5378301;26;20331;-80
2024/04/13 10:13:46;;;;;;;8.05;3.97;;;24.40;99.90;;;;;;5436288;26;20447;-79
2024/04/13 10:16:13;;;;;;;11.55;4.40;;;24.60;99.90;;;;;;5379863;26;20003;-79
2024/04/13 10:18:38;;;;;;;6.82;4.22;;;24.70;99.60;;;;;;5432316;26;20000;-80
2024/04/13 10:21:05;;;;;;;6.30;2.75;;;24.80;99.30;;;;;;5434086;26;20021;-80
2024/04/13 10:23:45;;;;;;;7.97;3.67;;;25.10;99.30;;;;;;5405126;26;20017;-80
2024/04/13 10:26:10;;;;;;;5.47;3.05;;;25.00;98.60;;;;;;5401499;26;20339;-79
2024/04/13 10:28:37;;;;;;;5.57;2.50;;;24.90;98.30;;;;;;5397065;26;19995;-81
2024/04/13 10:31:19;;;;;;;7.97;3.10;;;25.10;97.90;;;;;;5402174;26;20002;-81
2024/04/13 10:33:54;;;;;;;7.78;3.28;;;24.80;97.80;;;;;;5394383;26;20833;-81
2024/04/13 10:36:35;;;;;;;7.28;2.58;;;24.90;97.50;;;;;;5400434;26;20000;-81
2024/04/13 10:39:04;;;;;;;4.13;2.97;;;24.80;97.50;;;;;;5399287;26;20375;-81
2024/04/13 10:41:32;;;;;;;6.57;3.97;;;25.00;98.00;;;;;;5408071;26;19995;-81
2024/04/13 10:43:58;;;;;;;6.05;3.38;;;25.30;98.30;;;;;;5406250;26;20003;-82
2024/04/13 10:46:24;;;;;;;9.10;4.03;;;25.30;97.20;;;;;;5409012;26;20330;-81
2024/04/13 10:48:50;;;;;;;7.68;4.13;;;25.30;96.70;;;;;;5375949;26;20496;-80
2024/04/13 10:51:16;;;;;;;6.40;3.85;;;25.40;96.90;;;;;;5428730;26;20014;-81
2024/04/13 10:53:41;;;;;;;7.70;2.85;;;25.50;97.30;;;;;;5403503;26;20003;-81
2024/04/13 10:56:07;;;;;;;11.45;3.45;;;25.60;97.20;;;;;;5402354;26;20011;-81
2024/04/13 10:58:32;;;;;;;7.35;3.92;;;25.80;96.60;;;;;;5401009;26;20331;-81
2024/04/13 11:01:04;;;;;;;10.10;3.03;;;25.80;96.50;;;;;;5402857;26;20481;-81
2024/04/13 11:03:30;;;;;;;5.72;3.25;;;25.90;96.50;;;;;;5431463;26;20455;-81
2024/04/13 11:05:56;;;;;;;4.78;3.38;;;25.90;96.50;;;;;;5400374;26;20015;-81
2024/04/13 11:08:23;;;;;;;5.57;2.42;;;26.00;95.90;;;;;;5400648;26;20019;-81
2024/04/13 11:10:53;;;;;;;2.97;1.95;;;26.20;95.30;;;;;;5402014;26;20708;-81
2024/04/13 11:13:19;;;;;;;5.50;2.45;;;26.30;95.10;;;;;;5393459;26;20038;-80
2024/04/13 11:15:45;;;;;;;3.72;2.28;;;26.40;95.10;;;;;;5436758;26;20000;-80
2024/04/13 11:18:11;;;;;;;3.38;2.47;;;26.50;95.20;;;;;;5433460;26;20007;-80
2024/04/13 11:20:37;;;;;;;5.10;2.53;;;26.50;94.50;;;;;;5394366;26;20043;-79
2024/04/13 11:23:02;;;;;;;3.60;1.75;;;26.70;94.60;;;;;;5379970;26;19999;-80
2024/04/13 11:25:28;;;;;;;5.07;2.22;;;26.80;94.20;;;;;;5433827;26;19998;-80
2024/04/13 11:27:53;;;;;;;10.88;2.75;;;26.90;94.10;;;;;;5412190;26;19995;-80
2024/04/13 11:30:19;;;;;;;3.78;2.03;;;26.90;93.90;;;;;;5409665;26;20235;-81
2024/04/13 11:32:44;;;;;;;4.32;3.22;;;27.10;93.60;;;;;;5425469;26;19999;-81
2024/04/13 11:35:13;;;;;;;6.60;2.72;;;27.10;92.70;;;;;;5435648;26;20003;-81
2024/04/13 11:37:39;;;;;;;3.80;2.20;;;27.00;92.40;;;;;;5405125;26;20008;-82
2024/04/13 11:40:08;;;;;;;5.13;2.17;;;27.10;92.10;;;;;;5438055;26;20093;-82
2024/04/13 11:42:37;;;;;;;4.50;2.22;;;27.10;92.10;;;;;;5422441;26;20003;-82
2024/04/13 11:45:03;;;;;;;8.80;2.70;;;27.00;91.30;;;;;;5425511;26;20008;-81
2024/04/13 11:47:29;;;;;;;5.38;1.90;;;27.10;91.50;;;;;;5437979;26;20018;-81
2024/04/13 11:49:54;;;;;;;9.88;1.80;;;27.20;91.20;;;;;;5431568;26;20015;-82
2024/04/13 11:52:20;;;;;;;6.22;2.20;;;27.30;91.30;;;;;;5430320;26;20014;-84
2024/04/13 11:54:46;;;;;;;5.18;2.42;;;27.20;91.20;;;;;;5395722;26;20007;-85
2024/04/13 11:57:13;;;;;;;6.68;2.20;;;27.50;90.80;;;;;;5433306;26;20356;-84
2024/04/13 11:59:40;;;;;;;4.18;2.20;;;27.50;90.80;;;;;;5392280;26;19998;-83
2024/04/13 12:02:06;;;;;;;10.77;1.77;;;27.30;91.10;;;;;;5401217;26;20649;-84
2024/04/13 12:04:32;;;;;;;5.45;1.75;;;27.30;90.20;;;;;;5434209;26;19999;-84
2024/04/13 12:06:57;;;;;;;3.63;2.25;;;27.30;89.90;;;;;;5380480;26;20393;-84
2024/04/13 12:09:24;;;;;;;4.85;2.13;;;27.40;90.40;;;;;;5401749;26;19998;-84
2024/04/13 12:11:49;;;;;;;3.60;2.08;;;27.70;90.30;;;;;;5373863;26;20002;-84
2024/04/13 12:14:15;;;;;;;7.50;2.80;;;27.70;90.40;;;;;;5395715;26;20516;-84
2024/04/13 12:16:41;;;;;;;7.68;2.58;;;27.70;89.70;;;;;;5403883;26;20534;-84
2024/04/13 12:19:06;;;;;;;5.43;2.47;;;27.40;89.50;;;;;;5405068;26;19999;-83
2024/04/13 12:21:32;;;;;;;4.75;2.47;;;27.50;90.20;;;;;;5400986;26;20902;-83
2024/04/13 12:23:58;;;;;;;6.97;2.95;;;27.70;89.30;;;;;;5429136;26;20014;-84
2024/04/13 12:26:24;;;;;;;5.85;2.05;;;27.70;88.40;;;;;;5431113;26;20002;-85
2024/04/13 12:28:50;;;;;;;4.38;1.67;;;27.60;88.50;;;;;;5436097;26;20297;-84
2024/04/13 12:31:15;;;;;;;4.95;1.92;;;27.70;89.00;;;;;;5392357;26;20009;-84
2024/04/13 12:33:42;;;;;;;3.80;1.70;;;27.60;88.40;;;;;;5395496;26;20004;-84
2024/04/13 12:36:09;;;;;;;2.80;1.77;;;27.50;87.90;;;;;;5408365;26;20435;-84
2024/04/13 12:38:35;;;;;;;2.90;1.88;;;27.40;87.40;;;;;;5393442;26;20068;-84
2024/04/13 12:41:00;;;;;;;3.00;1.80;;;27.60;87.30;;;;;;5402693;26;20011;-83